Time;durP1;ratioP1;P1;durP2;ratioP2;P2;SDS_P1;SDS_P2;PMS_P1;PMS_P2;Temp;Humidity;BMP_temperature;BMP_pressure;BME280_temperature;BME280_humidity;BME280_pressure;Samples;Min_cycle;Max_cycle;Signal;HPM_P1;HPM_P2
2022/01/03 00:00:34;;;;;;;0.10;0.10;;;9.30;99.90;;;;;;4925290;29;20631;-73
2022/01/03 00:03:05;;;;;;;0.10;0.10;;;9.30;99.90;;;;;;4923685;29;20709;-71
2022/01/03 00:05:32;;;;;;;0.10;0.10;;;9.30;99.90;;;;;;4925512;29;20682;-70
2022/01/03 00:08:00;;;;;;;0.10;0.10;;;9.30;99.90;;;;;;4927605;29;20720;-71
2022/01/03 00:10:27;;;;;;;0.10;0.10;;;9.20;99.90;;;;;;4927247;29;20662;-70
2022/01/03 00:12:54;;;;;;;0.00;0.00;;;9.20;99.90;;;;;;4928683;29;20615;-70
2022/01/03 00:15:21;;;;;;;0.03;0.03;;;9.20;99.90;;;;;;4923997;29;20610;-71
2022/01/03 00:17:49;;;;;;;0.10;0.10;;;9.20;99.90;;;;;;4927524;29;20645;-71
2022/01/03 00:20:17;;;;;;;0.00;0.00;;;9.20;99.90;;;;;;4928979;29;21153;-71
2022/01/03 00:22:50;;;;;;;0.10;0.10;;;9.20;99.90;;;;;;4927775;29;20662;-71
2022/01/03 00:25:19;;;;;;;0.10;0.10;;;9.20;99.90;;;;;;4926849;29;20631;-71
2022/01/03 00:27:50;;;;;;;0.10;0.10;;;9.20;99.90;;;;;;4927425;29;20990;-71
2022/01/03 00:30:19;;;;;;;0.10;0.10;;;9.20;99.90;;;;;;4928685;29;20659;-71
2022/01/03 00:32:49;;;;;;;0.10;0.10;;;9.10;99.90;;;;;;4928362;29;20655;-71
2022/01/03 00:35:18;;;;;;;0.10;0.10;;;9.10;99.90;;;;;;4925750;29;20627;-71
2022/01/03 00:37:46;;;;;;;0.10;0.10;;;9.10;99.90;;;;;;4941152;28;20652;-71
2022/01/03 00:40:13;;;;;;;0.10;0.10;;;9.10;99.90;;;;;;4925794;29;20623;-70
2022/01/03 00:42:41;;;;;;;0.03;0.03;;;9.10;99.90;;;;;;4924799;29;20721;-71
2022/01/03 00:45:10;;;;;;;0.10;0.10;;;9.10;99.90;;;;;;4925762;29;20619;-71
2022/01/03 00:47:37;;;;;;;0.10;0.10;;;9.10;99.90;;;;;;4926018;29;20667;-70
2022/01/03 00:50:08;;;;;;;0.10;0.10;;;9.10;99.90;;;;;;4920637;29;21310;-70
2022/01/03 00:52:36;;;;;;;0.10;0.10;;;9.10;99.90;;;;;;4924701;29;20666;-70
2022/01/03 00:55:05;;;;;;;0.10;0.10;;;9.00;99.90;;;;;;4928198;28;20627;-70
2022/01/03 00:57:51;;;;;;;0.03;0.03;;;9.00;99.90;;;;;;4925173;29;20615;-70
2022/01/03 01:00:19;;;;;;;0.10;0.10;;;9.00;99.90;;;;;;4928767;29;20614;-70
2022/01/03 01:02:53;;;;;;;0.10;0.10;;;9.00;99.90;;;;;;4927405;29;20663;-70
2022/01/03 01:05:21;;;;;;;0.03;0.03;;;9.00;99.90;;;;;;4926997;29;20638;-70
2022/01/03 01:07:56;;;;;;;0.10;0.10;;;9.00;99.90;;;;;;4924911;29;20627;-70
2022/01/03 01:10:28;;;;;;;0.10;0.10;;;9.00;99.90;;;;;;4921455;29;20659;-70
2022/01/03 01:12:57;;;;;;;0.10;0.10;;;9.00;99.90;;;;;;4928510;29;20658;-70
2022/01/03 01:15:26;;;;;;;0.10;0.10;;;9.00;99.90;;;;;;4926968;29;20703;-71
2022/01/03 01:17:55;;;;;;;0.00;0.00;;;9.00;99.90;;;;;;4919292;29;20730;-69
2022/01/03 01:20:25;;;;;;;0.10;0.10;;;9.10;99.90;;;;;;4926285;29;20665;-70
2022/01/03 01:22:56;;;;;;;0.10;0.10;;;9.10;99.90;;;;;;4924491;29;20633;-71
2022/01/03 01:28:14;;;;;;;0.00;0.00;;;9.10;99.90;;;;;;4927057;29;20615;-70
2022/01/03 01:30:44;;;;;;;0.10;0.10;;;9.20;99.90;;;;;;4920452;29;20660;-70
2022/01/03 01:33:13;;;;;;;0.10;0.10;;;9.20;99.90;;;;;;4925190;29;20727;-70
2022/01/03 01:35:47;;;;;;;0.10;0.10;;;9.20;99.90;;;;;;4925566;29;20627;-71
2022/01/03 01:38:20;;;;;;;0.10;0.10;;;9.20;99.90;;;;;;4926085;29;20627;-70
2022/01/03 01:40:49;;;;;;;0.03;0.03;;;9.30;99.90;;;;;;4925766;29;20654;-69
2022/01/03 01:43:20;;;;;;;0.10;0.10;;;9.30;99.90;;;;;;4892406;29;1171805;-70
2022/01/03 01:45:52;;;;;;;0.10;0.10;;;9.30;99.90;;;;;;4929936;28;20205;-69
2022/01/03 01:48:23;;;;;;;0.10;0.10;;;9.40;99.90;;;;;;4932577;29;20641;-71
2022/01/03 01:50:53;;;;;;;0.00;0.00;;;9.50;99.90;;;;;;4948788;28;20678;-69
2022/01/03 01:53:25;;;;;;;0.10;0.10;;;9.50;99.90;;;;;;4947023;28;21394;-71
2022/01/03 01:55:56;;;;;;;0.10;0.10;;;9.50;99.90;;;;;;4948194;28;20734;-70
2022/01/03 01:58:30;;;;;;;0.10;0.10;;;9.60;99.90;;;;;;4925927;29;20630;-70
2022/01/03 02:01:01;;;;;;;0.10;0.10;;;9.60;99.90;;;;;;4930512;29;20726;-71
2022/01/03 02:03:53;;;;;;;0.10;0.10;;;9.60;99.90;;;;;;4926645;29;20638;-70
2022/01/03 02:06:28;;;;;;;0.10;0.10;;;9.60;99.90;;;;;;4928095;29;20662;-70
2022/01/03 02:09:07;;;;;;;0.10;0.10;;;9.60;99.90;;;;;;4930495;29;20981;-70
2022/01/03 02:11:50;;;;;;;0.10;0.10;;;9.70;99.90;;;;;;4932551;29;20654;-70
2022/01/03 02:14:19;;;;;;;0.10;0.10;;;9.70;99.90;;;;;;4925017;29;20631;-70
2022/01/03 02:16:45;;;;;;;0.10;0.10;;;9.70;99.90;;;;;;4930044;29;20643;-70
2022/01/03 02:19:13;;;;;;;0.10;0.10;;;9.70;99.90;;;;;;4930037;29;20651;-70
2022/01/03 02:21:43;;;;;;;0.10;0.10;;;9.70;99.90;;;;;;4929457;29;20655;-70
2022/01/03 02:24:12;;;;;;;0.00;0.00;;;9.70;99.90;;;;;;4927940;29;20634;-70
2022/01/03 02:26:41;;;;;;;0.10;0.10;;;9.70;99.90;;;;;;4919068;29;20647;-70
2022/01/03 02:29:08;;;;;;;0.10;0.10;;;9.80;99.90;;;;;;4930613;29;20630;-70
2022/01/03 02:31:37;;;;;;;0.10;0.10;;;9.80;99.90;;;;;;4928064;29;20654;-70
2022/01/03 02:34:05;;;;;;;0.10;0.10;;;9.80;99.90;;;;;;4925576;29;20618;-71
2022/01/03 02:36:35;;;;;;;0.10;0.10;;;9.80;99.90;;;;;;4927964;29;20627;-70
2022/01/03 02:39:04;;;;;;;0.00;0.00;;;9.90;99.90;;;;;;4927995;29;20663;-70
2022/01/03 02:41:31;;;;;;;0.10;0.10;;;9.90;99.90;;;;;;4927922;29;20667;-70
2022/01/03 02:44:00;;;;;;;0.10;0.10;;;9.90;99.90;;;;;;4929776;29;20678;-71
2022/01/03 02:46:28;;;;;;;0.10;0.10;;;9.90;99.90;;;;;;4933506;29;21326;-70
2022/01/03 02:48:55;;;;;;;0.10;0.10;;;9.90;99.90;;;;;;4929595;29;20630;-70
2022/01/03 02:51:22;;;;;;;0.10;0.10;;;9.90;99.90;;;;;;4935166;28;21240;-70
2022/01/03 02:53:49;;;;;;;0.00;0.00;;;9.90;99.90;;;;;;4929760;29;20623;-71
2022/01/03 02:56:18;;;;;;;0.10;0.10;;;10.00;99.90;;;;;;4929533;29;20211;-71
2022/01/03 02:58:44;;;;;;;0.10;0.10;;;10.00;99.90;;;;;;4929855;29;20199;-70
2022/01/03 03:01:12;;;;;;;0.10;0.10;;;10.00;99.90;;;;;;4930496;29;20714;-70
2022/01/03 03:03:47;;;;;;;0.10;0.10;;;10.00;99.90;;;;;;4927506;29;20692;-70
2022/01/03 03:06:14;;;;;;;0.10;0.10;;;10.00;99.90;;;;;;4928780;29;20639;-70
2022/01/03 03:08:41;;;;;;;0.10;0.10;;;10.00;99.90;;;;;;4929314;29;20611;-70
2022/01/03 03:11:08;;;;;;;0.10;0.10;;;10.00;99.90;;;;;;4930685;29;20698;-69
2022/01/03 03:13:37;;;;;;;0.00;0.00;;;10.00;99.90;;;;;;4930024;29;20610;-70
2022/01/03 03:16:06;;;;;;;0.10;0.10;;;9.90;99.90;;;;;;4927426;29;20647;-70
2022/01/03 03:18:33;;;;;;;0.00;0.00;;;9.80;99.90;;;;;;4928167;29;20230;-70
2022/01/03 03:21:00;;;;;;;0.10;0.10;;;9.70;99.90;;;;;;4933785;28;20659;-70
2022/01/03 03:23:27;;;;;;;0.00;0.00;;;9.70;99.90;;;;;;4923877;29;20203;-70
2022/01/03 03:25:55;;;;;;;0.10;0.10;;;9.60;99.90;;;;;;4929805;28;20214;-70
2022/01/03 03:28:25;;;;;;;0.10;0.10;;;9.50;99.90;;;;;;4928727;29;20718;-70
2022/01/03 03:30:56;;;;;;;0.10;0.10;;;9.50;99.90;;;;;;4928303;29;20749;-70
2022/01/03 03:33:32;;;;;;;0.10;0.10;;;9.40;99.90;;;;;;4928756;29;20638;-70
2022/01/03 03:36:03;;;;;;;0.10;0.10;;;9.40;99.90;;;;;;4928239;29;20623;-70
2022/01/03 03:38:32;;;;;;;0.10;0.10;;;9.40;99.90;;;;;;4928889;29;20651;-70
2022/01/03 03:41:02;;;;;;;0.10;0.10;;;9.30;99.90;;;;;;4927168;29;20215;-70
2022/01/03 03:43:38;;;;;;;0.10;0.10;;;9.40;99.90;;;;;;4925131;29;20729;-70
2022/01/03 03:46:10;;;;;;;0.10;0.10;;;9.40;99.90;;;;;;4928333;29;20654;-70
2022/01/03 03:48:38;;;;;;;0.00;0.00;;;9.40;99.90;;;;;;4928860;29;20641;-70
2022/01/03 03:51:05;;;;;;;0.00;0.00;;;9.40;99.90;;;;;;4920610;29;20671;-70
2022/01/03 03:53:34;;;;;;;0.03;0.03;;;9.40;99.90;;;;;;4929641;29;20619;-69
2022/01/03 03:56:02;;;;;;;0.10;0.10;;;9.40;99.90;;;;;;4926509;29;20711;-70
2022/01/03 03:58:32;;;;;;;0.10;0.10;;;9.40;99.90;;;;;;4928991;29;20623;-70
2022/01/03 04:00:59;;;;;;;0.10;0.10;;;9.40;99.90;;;;;;4927118;29;20742;-70
2022/01/03 04:03:27;;;;;;;0.10;0.10;;;9.40;99.90;;;;;;4928436;29;21263;-71
2022/01/03 04:05:54;;;;;;;0.10;0.10;;;9.40;99.90;;;;;;4928272;29;20628;-69
2022/01/03 04:08:21;;;;;;;0.10;0.10;;;9.50;99.90;;;;;;4930848;28;20623;-70
2022/01/03 04:10:48;;;;;;;0.10;0.10;;;9.50;99.90;;;;;;4928673;29;20746;-69
2022/01/03 04:13:15;;;;;;;0.10;0.10;;;9.50;99.90;;;;;;4927539;29;20686;-69
2022/01/03 04:15:42;;;;;;;0.00;0.00;;;9.50;99.90;;;;;;4928677;29;20207;-69
2022/01/03 04:18:10;;;;;;;0.10;0.10;;;9.50;99.90;;;;;;4927733;29;20627;-68
2022/01/03 04:20:38;;;;;;;0.10;0.10;;;9.50;99.90;;;;;;4928309;29;20620;-69
2022/01/03 04:23:05;;;;;;;0.00;0.00;;;9.50;99.90;;;;;;4929324;29;20632;-69
2022/01/03 04:25:32;;;;;;;0.10;0.10;;;9.50;99.90;;;;;;4926691;29;20743;-68
2022/01/03 04:27:59;;;;;;;0.10;0.10;;;9.60;99.90;;;;;;4928252;29;20719;-70
2022/01/03 04:30:27;;;;;;;0.10;0.10;;;9.60;99.90;;;;;;4923903;29;20656;-69
2022/01/03 04:32:54;;;;;;;0.10;0.10;;;9.60;99.90;;;;;;4929357;29;20631;-69
2022/01/03 04:35:22;;;;;;;0.10;0.10;;;9.60;99.90;;;;;;4929280;29;20647;-70
2022/01/03 04:37:50;;;;;;;0.10;0.10;;;9.60;99.90;;;;;;4927109;29;21243;-70
2022/01/03 04:40:17;;;;;;;0.10;0.10;;;9.60;99.90;;;;;;4925621;29;20651;-69
2022/01/03 04:42:44;;;;;;;0.10;0.10;;;9.50;99.90;;;;;;4923447;29;20666;-70
2022/01/03 04:45:12;;;;;;;0.10;0.10;;;9.50;99.90;;;;;;4927159;29;20654;-72
2022/01/03 04:47:39;;;;;;;0.10;0.10;;;9.50;99.90;;;;;;4925802;29;20670;-70
2022/01/03 04:50:07;;;;;;;0.10;0.10;;;9.50;99.90;;;;;;4927172;29;20672;-71
2022/01/03 04:52:34;;;;;;;0.10;0.10;;;9.50;99.90;;;;;;4927549;29;20651;-70
2022/01/03 04:55:03;;;;;;;0.10;0.10;;;9.50;99.90;;;;;;4928906;29;21216;-70
2022/01/03 04:57:30;;;;;;;0.10;0.10;;;9.50;99.90;;;;;;4928398;29;20722;-70
2022/01/03 04:59:57;;;;;;;0.10;0.10;;;9.50;99.90;;;;;;4926890;29;21207;-70
2022/01/03 05:02:25;;;;;;;0.10;0.10;;;9.50;99.90;;;;;;4927776;29;20677;-70
2022/01/03 05:04:52;;;;;;;0.10;0.10;;;9.40;99.90;;;;;;4928493;29;20693;-69
2022/01/03 05:07:20;;;;;;;0.10;0.10;;;9.40;99.90;;;;;;4929562;29;20615;-69
2022/01/03 05:09:47;;;;;;;0.10;0.10;;;9.50;99.90;;;;;;4924256;29;20627;-69
2022/01/03 05:12:18;;;;;;;0.10;0.10;;;9.50;99.90;;;;;;4926749;29;20683;-69
2022/01/03 05:14:46;;;;;;;0.10;0.10;;;9.50;99.90;;;;;;4925670;29;20624;-70
2022/01/03 05:17:13;;;;;;;0.10;0.10;;;9.40;99.90;;;;;;4927445;29;20627;-69
2022/01/03 05:19:40;;;;;;;0.10;0.10;;;9.50;99.90;;;;;;4925432;29;20656;-70
2022/01/03 05:22:07;;;;;;;0.10;0.10;;;9.40;99.90;;;;;;4924796;29;20659;-70
2022/01/03 05:24:36;;;;;;;0.10;0.10;;;9.40;99.90;;;;;;4923666;29;20619;-69
2022/01/03 05:27:05;;;;;;;0.10;0.10;;;9.40;99.90;;;;;;4926559;29;20630;-70
2022/01/03 05:29:35;;;;;;;0.10;0.10;;;9.40;99.90;;;;;;4928622;29;20630;-72
2022/01/03 05:32:04;;;;;;;0.10;0.10;;;9.30;99.90;;;;;;4924786;29;20706;-70
2022/01/03 05:34:31;;;;;;;0.10;0.10;;;9.30;99.90;;;;;;4927241;29;20638;-71
2022/01/03 05:36:59;;;;;;;0.10;0.10;;;9.30;99.90;;;;;;4927324;29;20655;-71
2022/01/03 05:39:26;;;;;;;0.10;0.10;;;9.30;99.90;;;;;;4917621;29;20627;-71
2022/01/03 05:41:54;;;;;;;0.10;0.10;;;9.30;99.90;;;;;;4926736;29;20698;-70
2022/01/03 05:44:21;;;;;;;0.10;0.10;;;9.30;99.90;;;;;;4927013;29;20628;-71
2022/01/03 05:46:49;;;;;;;0.10;0.10;;;9.30;99.90;;;;;;4927348;29;20999;-71
2022/01/03 05:49:16;;;;;;;0.00;0.00;;;9.30;99.90;;;;;;4925743;29;20623;-71
2022/01/03 05:51:44;;;;;;;0.10;0.10;;;9.30;99.90;;;;;;4929334;29;20777;-70
2022/01/03 05:54:11;;;;;;;0.00;0.00;;;9.30;99.90;;;;;;4925362;29;20615;-70
2022/01/03 05:56:38;;;;;;;0.10;0.10;;;9.30;99.90;;;;;;4928412;29;20642;-70
2022/01/03 05:59:08;;;;;;;0.10;0.10;;;9.30;99.90;;;;;;4927309;29;20631;-71
2022/01/03 06:01:37;;;;;;;0.10;0.10;;;9.30;99.90;;;;;;4922853;29;20647;-71
2022/01/03 06:04:15;;;;;;;0.10;0.10;;;9.20;99.90;;;;;;4931030;29;20615;-71
2022/01/03 06:06:59;;;;;;;0.10;0.10;;;9.20;99.90;;;;;;4924800;29;20634;-71
2022/01/03 06:09:33;;;;;;;0.10;0.10;;;9.20;99.90;;;;;;4918714;29;20734;-71
2022/01/03 06:12:02;;;;;;;0.10;0.10;;;9.20;99.90;;;;;;4925273;29;20671;-71
2022/01/03 06:14:30;;;;;;;0.10;0.10;;;9.20;99.90;;;;;;4925523;29;20622;-72
2022/01/03 06:16:57;;;;;;;0.10;0.10;;;9.10;99.90;;;;;;4927319;29;20690;-71
2022/01/03 06:19:26;;;;;;;0.10;0.10;;;9.20;99.90;;;;;;4926031;29;20615;-70
2022/01/03 06:21:53;;;;;;;0.10;0.10;;;9.10;99.90;;;;;;4926212;29;20663;-71
2022/01/03 06:24:22;;;;;;;0.10;0.10;;;9.10;99.90;;;;;;4929707;29;20661;-71
2022/01/03 06:26:52;;;;;;;0.10;0.10;;;9.10;99.90;;;;;;4930284;29;20633;-71
2022/01/03 06:29:20;;;;;;;0.10;0.10;;;9.00;99.90;;;;;;4920273;29;20722;-71
2022/01/03 06:31:50;;;;;;;0.10;0.10;;;9.00;99.90;;;;;;4929604;29;20693;-72
2022/01/03 06:34:18;;;;;;;0.10;0.10;;;9.00;99.90;;;;;;4929880;29;20630;-71
2022/01/03 06:36:47;;;;;;;0.10;0.10;;;9.00;99.90;;;;;;4930176;29;21180;-71
2022/01/03 06:39:14;;;;;;;0.10;0.10;;;9.00;99.90;;;;;;4929267;29;20772;-70
2022/01/03 06:41:42;;;;;;;0.10;0.10;;;9.00;99.90;;;;;;4932142;29;20685;-71
2022/01/03 06:44:09;;;;;;;0.10;0.10;;;9.00;99.90;;;;;;4929543;29;20623;-70
2022/01/03 06:46:37;;;;;;;0.10;0.10;;;9.00;99.90;;;;;;4951747;28;20649;-71
2022/01/03 06:49:06;;;;;;;0.10;0.10;;;9.00;99.90;;;;;;4927715;29;20638;-71
2022/01/03 06:51:35;;;;;;;0.10;0.10;;;8.90;99.90;;;;;;4930313;29;20671;-71
2022/01/03 06:54:09;;;;;;;0.10;0.10;;;9.00;99.90;;;;;;4929086;29;20709;-71
2022/01/03 06:56:40;;;;;;;0.10;0.10;;;8.90;99.90;;;;;;4929970;29;20633;-71
2022/01/03 06:59:07;;;;;;;0.10;0.10;;;9.00;99.90;;;;;;4935161;29;20687;-69
2022/01/03 07:01:35;;;;;;;0.10;0.10;;;8.90;99.90;;;;;;4932573;29;20661;-71
2022/01/03 07:04:03;;;;;;;0.10;0.10;;;8.90;99.90;;;;;;4936081;29;20627;-71
2022/01/03 07:06:32;;;;;;;0.10;0.10;;;8.90;99.90;;;;;;4933155;29;20624;-70
2022/01/03 07:09:00;;;;;;;0.10;0.10;;;8.90;99.90;;;;;;4935097;29;20615;-70
2022/01/03 07:11:31;;;;;;;0.00;0.00;;;8.90;99.90;;;;;;4931981;29;20663;-70
2022/01/03 07:18:55;;;;;;;0.10;0.10;;;8.90;99.90;;;;;;4939524;28;20710;-70
2022/01/03 07:19:42;;;;;;;0.10;0.10;;;8.90;99.90;;;;;;4932570;29;20622;-71
2022/01/03 07:22:11;;;;;;;0.10;0.10;;;8.90;99.90;;;;;;4932458;29;21027;-70
2022/01/03 07:24:40;;;;;;;0.10;0.10;;;8.90;99.90;;;;;;4936193;29;20635;-70
2022/01/03 07:27:14;;;;;;;0.10;0.10;;;8.90;99.90;;;;;;4934722;29;20754;-70
2022/01/03 07:29:43;;;;;;;0.10;0.10;;;8.80;99.90;;;;;;4937383;29;20647;-71
2022/01/03 07:32:11;;;;;;;0.10;0.10;;;8.80;99.90;;;;;;4936589;29;20862;-70
2022/01/03 07:34:38;;;;;;;0.10;0.10;;;8.80;99.90;;;;;;4934368;29;20628;-70
2022/01/03 07:37:11;;;;;;;0.10;0.10;;;8.80;99.90;;;;;;4932547;29;20623;-70
2022/01/03 07:39:39;;;;;;;0.10;0.10;;;8.80;99.90;;;;;;4940645;28;20631;-70
2022/01/03 07:42:14;;;;;;;0.10;0.10;;;8.80;99.90;;;;;;4932515;29;20672;-70
2022/01/03 07:44:47;;;;;;;0.10;0.10;;;8.80;99.90;;;;;;4930105;29;20658;-71
2022/01/03 07:47:16;;;;;;;0.10;0.10;;;8.80;99.90;;;;;;4934299;29;20657;-71
2022/01/03 07:49:45;;;;;;;0.00;0.00;;;8.80;99.90;;;;;;4935262;28;20681;-70
2022/01/03 07:52:13;;;;;;;0.10;0.10;;;8.80;99.90;;;;;;4935752;29;20713;-70
2022/01/03 07:54:40;;;;;;;0.10;0.10;;;8.70;99.90;;;;;;4931414;29;20639;-71
2022/01/03 07:57:07;;;;;;;0.10;0.10;;;8.70;99.90;;;;;;4934409;29;20654;-70
2022/01/03 07:59:36;;;;;;;0.10;0.10;;;8.70;99.90;;;;;;4934434;29;20627;-70
2022/01/03 08:02:04;;;;;;;0.10;0.10;;;8.70;99.90;;;;;;4935090;29;20663;-71
2022/01/03 08:04:31;;;;;;;0.10;0.10;;;8.70;99.90;;;;;;4928751;29;20649;-70
2022/01/03 08:06:59;;;;;;;0.03;0.03;;;8.80;99.90;;;;;;4938622;28;20619;-70
2022/01/03 08:09:26;;;;;;;0.10;0.10;;;8.70;99.90;;;;;;4932111;29;20631;-70
2022/01/03 08:11:53;;;;;;;0.10;0.10;;;8.80;99.90;;;;;;4934987;29;21054;-69
2022/01/03 08:14:21;;;;;;;0.10;0.10;;;8.70;99.90;;;;;;4934848;29;20658;-70
2022/01/03 08:16:50;;;;;;;0.10;0.10;;;8.80;99.90;;;;;;4934414;29;20635;-70
2022/01/03 08:19:17;;;;;;;0.10;0.10;;;8.80;99.90;;;;;;4933348;29;20627;-70
2022/01/03 08:21:45;;;;;;;0.10;0.10;;;8.80;99.90;;;;;;4931355;29;20781;-70
2022/01/03 08:24:12;;;;;;;0.10;0.10;;;8.90;99.90;;;;;;4930528;29;20634;-70
2022/01/03 08:26:40;;;;;;;0.10;0.10;;;8.90;99.90;;;;;;4934387;29;20618;-71
2022/01/03 08:29:10;;;;;;;0.10;0.10;;;9.00;99.90;;;;;;4934930;29;20647;-71
2022/01/03 08:31:38;;;;;;;0.10;0.10;;;9.10;99.90;;;;;;4931184;29;20671;-70
2022/01/03 08:34:07;;;;;;;0.10;0.10;;;9.20;99.90;;;;;;4928495;29;20615;-71
2022/01/03 08:36:35;;;;;;;0.00;0.00;;;9.30;99.90;;;;;;4934255;29;20619;-71
2022/01/03 08:39:02;;;;;;;0.10;0.10;;;9.40;99.90;;;;;;4926839;29;20623;-70
2022/01/03 08:41:30;;;;;;;0.10;0.10;;;9.50;99.90;;;;;;4934783;29;20662;-70
2022/01/03 08:43:57;;;;;;;0.10;0.10;;;9.50;99.90;;;;;;4928875;29;20638;-70
2022/01/03 08:46:25;;;;;;;0.03;0.03;;;9.50;99.90;;;;;;4932392;29;20647;-70
2022/01/03 08:48:53;;;;;;;0.00;0.00;;;9.60;99.90;;;;;;4933436;29;20639;-70
2022/01/03 08:51:23;;;;;;;0.00;0.00;;;9.70;99.90;;;;;;4930786;29;20675;-71
2022/01/03 08:53:51;;;;;;;0.10;0.10;;;9.70;99.90;;;;;;4933789;29;20615;-71
2022/01/03 08:56:22;;;;;;;0.10;0.10;;;9.80;99.90;;;;;;4935691;29;20619;-71
2022/01/03 08:58:49;;;;;;;0.10;0.10;;;9.90;99.90;;;;;;4932065;29;20635;-71
2022/01/03 09:01:17;;;;;;;0.10;0.10;;;9.90;99.90;;;;;;4932984;29;20658;-70
2022/01/03 09:03:44;;;;;;;0.10;0.10;;;9.90;99.90;;;;;;4931875;29;20635;-70
2022/01/03 09:06:11;;;;;;;0.10;0.10;;;9.80;99.90;;;;;;4930357;29;20569;-70
2022/01/03 09:08:39;;;;;;;0.10;0.10;;;9.80;99.90;;;;;;4930359;29;20630;-70
2022/01/03 09:11:06;;;;;;;0.10;0.10;;;9.70;99.90;;;;;;4928797;29;20654;-70
2022/01/03 09:13:34;;;;;;;0.10;0.10;;;9.70;99.90;;;;;;4928552;29;20749;-70
2022/01/03 09:16:04;;;;;;;0.10;0.10;;;9.70;99.90;;;;;;4930494;29;20694;-70
2022/01/03 09:18:32;;;;;;;0.10;0.10;;;9.80;99.90;;;;;;4931711;29;20731;-70
2022/01/03 09:21:00;;;;;;;0.00;0.00;;;9.80;99.90;;;;;;4933023;29;20759;-70
2022/01/03 09:23:31;;;;;;;0.10;0.10;;;9.80;99.90;;;;;;4932448;29;20686;-70
2022/01/03 09:28:52;;;;;;;0.10;0.10;;;9.80;99.90;;;;;;4931145;29;20623;-70
2022/01/03 09:31:24;;;;;;;0.10;0.10;;;9.80;99.90;;;;;;4932428;29;20666;-70
2022/01/03 09:33:55;;;;;;;0.10;0.10;;;9.80;99.90;;;;;;4925013;29;20638;-70
2022/01/03 09:36:23;;;;;;;0.10;0.10;;;9.80;99.90;;;;;;4945726;28;20631;-70
2022/01/03 09:38:50;;;;;;;0.10;0.10;;;9.80;99.90;;;;;;4931306;29;20631;-70
2022/01/03 09:41:23;;;;;;;0.10;0.10;;;9.80;99.90;;;;;;4935973;29;20807;-70
2022/01/03 09:43:55;;;;;;;0.10;0.10;;;9.90;99.90;;;;;;4946428;28;20638;-70
2022/01/03 09:46:26;;;;;;;0.10;0.10;;;9.90;99.90;;;;;;4937580;29;20726;-70
2022/01/03 09:48:56;;;;;;;0.10;0.10;;;9.90;99.90;;;;;;4933653;29;21008;-70
2022/01/03 09:51:27;;;;;;;0.00;0.00;;;10.00;99.90;;;;;;4934442;29;20216;-70
2022/01/03 09:54:01;;;;;;;0.03;0.03;;;10.00;99.90;;;;;;4935134;29;20219;-71
2022/01/03 09:56:33;;;;;;;0.10;0.10;;;10.00;99.90;;;;;;4933293;29;20601;-70
2022/01/03 09:59:01;;;;;;;0.10;0.10;;;10.10;99.90;;;;;;4937330;29;20664;-71
2022/01/03 10:01:30;;;;;;;0.10;0.10;;;10.20;99.90;;;;;;4935464;29;20663;-70
2022/01/03 10:03:59;;;;;;;0.10;0.10;;;10.30;99.90;;;;;;4940255;29;20635;-70
2022/01/03 10:06:31;;;;;;;0.07;0.07;;;10.40;99.90;;;;;;4938077;29;20294;-70
2022/01/03 10:08:59;;;;;;;0.10;0.10;;;10.40;99.90;;;;;;4937965;29;21204;-70
2022/01/03 10:11:28;;;;;;;0.10;0.10;;;10.40;99.90;;;;;;4932721;29;20717;-70
2022/01/03 10:14:04;;;;;;;0.10;0.10;;;10.40;99.90;;;;;;4934761;29;20274;-70
2022/01/03 10:16:32;;;;;;;0.07;0.07;;;10.50;99.90;;;;;;4937418;29;20202;-70
2022/01/03 10:19:03;;;;;;;0.10;0.10;;;10.50;99.90;;;;;;4936477;29;20608;-70
2022/01/03 10:21:37;;;;;;;0.10;0.10;;;10.50;99.90;;;;;;4934309;29;20231;-70
2022/01/03 10:24:06;;;;;;;0.10;0.10;;;10.50;99.90;;;;;;4933148;29;20207;-70
2022/01/03 10:26:36;;;;;;;0.10;0.10;;;10.60;99.90;;;;;;4929997;29;20210;-70
2022/01/03 10:29:17;;;;;;;0.10;0.10;;;10.60;99.90;;;;;;4933169;29;20237;-70
2022/01/03 10:31:46;;;;;;;0.00;0.00;;;10.60;99.90;;;;;;4932664;29;20233;-70
2022/01/03 10:34:17;;;;;;;0.00;0.00;;;10.70;99.90;;;;;;4934404;29;20214;-70
2022/01/03 10:36:47;;;;;;;0.10;0.10;;;10.70;99.90;;;;;;4932996;29;20207;-70
2022/01/03 10:39:20;;;;;;;0.10;0.10;;;10.70;99.90;;;;;;4931017;29;20204;-70
2022/01/03 10:41:49;;;;;;;0.10;0.10;;;10.70;99.90;;;;;;4935046;29;20658;-70
2022/01/03 10:44:33;;;;;;;0.10;0.10;;;10.80;99.90;;;;;;4930339;29;20215;-71
2022/01/03 10:47:04;;;;;;;0.10;0.10;;;10.90;99.90;;;;;;4930666;29;20210;-70
2022/01/03 10:49:33;;;;;;;0.10;0.10;;;11.10;99.90;;;;;;4932259;29;20673;-70
2022/01/03 10:52:18;;;;;;;0.00;0.00;;;11.20;99.90;;;;;;4946520;28;20251;-70
2022/01/03 10:55:06;;;;;;;0.10;0.10;;;11.30;99.90;;;;;;4929849;29;20678;-70
2022/01/03 10:57:49;;;;;;;0.07;0.07;;;11.50;99.90;;;;;;4928551;29;20199;-71
2022/01/03 11:00:23;;;;;;;0.00;0.00;;;11.60;99.90;;;;;;4948086;28;20199;-70
2022/01/03 11:03:20;;;;;;;0.10;0.10;;;11.60;99.90;;;;;;4936076;29;20223;-70
2022/01/03 11:05:54;;;;;;;0.10;0.10;;;11.60;99.90;;;;;;4930573;29;20199;-70
2022/01/03 11:11:09;;;;;;;0.10;0.10;;;11.70;99.90;;;;;;4932484;29;20226;-69
2022/01/03 11:13:44;;;;;;;0.10;0.10;;;11.80;99.90;;;;;;4933523;29;20223;-69
2022/01/03 11:16:13;;;;;;;0.10;0.10;;;12.00;99.90;;;;;;4930712;29;20210;-70
2022/01/03 11:18:46;;;;;;;0.10;0.10;;;12.10;99.90;;;;;;4946150;28;20210;-69
2022/01/03 11:21:18;;;;;;;0.10;0.10;;;12.20;99.90;;;;;;4927763;29;20227;-71
2022/01/03 11:23:48;;;;;;;0.10;0.10;;;12.20;99.90;;;;;;4933835;28;20594;-71
2022/01/03 11:26:16;;;;;;;0.10;0.10;;;12.20;99.90;;;;;;4927967;29;20608;-70
2022/01/03 11:28:44;;;;;;;0.10;0.10;;;12.20;99.90;;;;;;4931588;29;20230;-70
2022/01/03 11:31:14;;;;;;;0.10;0.10;;;12.10;99.90;;;;;;4934389;28;20230;-69
2022/01/03 11:33:42;;;;;;;0.10;0.10;;;12.10;99.90;;;;;;4943559;28;20231;-70
2022/01/03 11:36:10;;;;;;;0.10;0.10;;;12.10;99.90;;;;;;4945646;28;20203;-70
2022/01/03 11:38:40;;;;;;;0.10;0.10;;;12.10;99.90;;;;;;4927164;29;20211;-71
2022/01/03 11:41:09;;;;;;;0.00;0.00;;;12.20;99.90;;;;;;4916078;28;20260;-71
2022/01/03 11:43:38;;;;;;;0.00;0.00;;;12.20;99.90;;;;;;4934208;29;20207;-71
2022/01/03 11:46:06;;;;;;;0.00;0.00;;;12.20;99.90;;;;;;4931284;29;20200;-70
2022/01/03 11:48:36;;;;;;;0.00;0.00;;;12.20;99.90;;;;;;4931351;29;20203;-70
2022/01/03 11:51:06;;;;;;;0.10;0.10;;;12.00;99.90;;;;;;4927991;29;20261;-70
2022/01/03 11:53:37;;;;;;;0.10;0.10;;;11.90;99.90;;;;;;4931846;29;20219;-70
2022/01/03 11:56:09;;;;;;;0.00;0.00;;;11.80;99.90;;;;;;4946543;28;20203;-69
2022/01/03 11:58:56;;;;;;;0.10;0.10;;;11.60;99.90;;;;;;4934914;29;20298;-70
2022/01/03 12:04:18;;;;;;;0.10;0.10;;;11.60;99.90;;;;;;4947134;28;20199;-69
2022/01/03 12:06:46;;;;;;;0.00;0.00;;;11.70;99.90;;;;;;4927586;29;20307;-71
2022/01/03 12:09:15;;;;;;;0.00;0.00;;;11.80;99.90;;;;;;4939937;28;20218;-70
2022/01/03 12:11:52;;;;;;;0.10;0.10;;;11.90;99.90;;;;;;4932547;29;20219;-71
2022/01/03 12:14:26;;;;;;;0.10;0.10;;;11.90;99.90;;;;;;4927262;28;20269;-69
2022/01/03 12:16:57;;;;;;;0.10;0.10;;;11.70;99.90;;;;;;4947395;28;20227;-70
2022/01/03 12:19:35;;;;;;;0.10;0.10;;;11.70;99.90;;;;;;4933744;29;20290;-71
2022/01/03 12:22:15;;;;;;;0.10;0.10;;;11.50;99.90;;;;;;4933146;29;20219;-70
2022/01/03 12:24:45;;;;;;;0.10;0.10;;;11.40;99.90;;;;;;4926247;29;20234;-71
2022/01/03 12:27:31;;;;;;;0.10;0.10;;;11.30;99.90;;;;;;4928210;29;20290;-70
2022/01/03 12:30:21;;;;;;;0.00;0.00;;;11.10;99.90;;;;;;4933510;29;20219;-71
2022/01/03 12:33:28;;;;;;;0.00;0.00;;;11.10;99.90;;;;;;4931256;29;20246;-70
2022/01/03 12:36:17;;;;;;;0.10;0.10;;;11.00;99.90;;;;;;4948905;28;20236;-70
2022/01/03 12:39:07;;;;;;;0.00;0.00;;;10.90;99.90;;;;;;4930397;29;20207;-71
2022/01/03 12:41:47;;;;;;;0.10;0.10;;;10.90;99.90;;;;;;4930119;29;20239;-69
2022/01/03 12:44:53;;;;;;;0.00;0.00;;;10.80;99.90;;;;;;4930837;29;20204;-69
2022/01/03 12:47:22;;;;;;;0.00;0.00;;;10.90;99.90;;;;;;4947425;28;20767;-70
2022/01/03 12:50:22;;;;;;;0.10;0.10;;;10.90;99.90;;;;;;4937595;28;20260;-70
2022/01/03 12:52:51;;;;;;;0.10;0.10;;;10.90;99.90;;;;;;4931064;29;20231;-69
2022/01/03 12:55:45;;;;;;;0.10;0.10;;;11.00;99.90;;;;;;4946001;28;20203;-70
2022/01/03 12:58:41;;;;;;;0.10;0.10;;;11.00;99.90;;;;;;4946703;28;20207;-70
2022/01/03 13:01:25;;;;;;;0.10;0.10;;;11.10;99.90;;;;;;4935810;28;20231;-69
2022/01/03 13:03:55;;;;;;;0.10;0.10;;;11.20;99.90;;;;;;4947916;28;20256;-70
2022/01/03 13:06:29;;;;;;;0.10;0.10;;;11.20;99.90;;;;;;4951303;28;20756;-70
2022/01/03 13:09:19;;;;;;;0.00;0.00;;;11.30;99.90;;;;;;4928886;29;20206;-70
2022/01/03 13:11:50;;;;;;;0.03;0.03;;;11.30;99.90;;;;;;4932122;29;20337;-70
2022/01/03 13:14:20;;;;;;;0.10;0.10;;;11.30;99.90;;;;;;4932156;29;20223;-69
2022/01/03 13:16:55;;;;;;;0.00;0.00;;;11.40;99.90;;;;;;4933835;29;20195;-70
2022/01/03 13:19:27;;;;;;;0.00;0.00;;;11.40;99.90;;;;;;4931377;29;20209;-69
2022/01/03 13:22:01;;;;;;;0.00;0.00;;;11.30;99.90;;;;;;4931262;29;20228;-70
2022/01/03 13:24:43;;;;;;;0.10;0.10;;;11.30;99.90;;;;;;4931754;29;20203;-70